Time;durP1;ratioP1;P1;durP2;ratioP2;P2;SDS_P1;SDS_P2;PMS_P1;PMS_P2;Temp;Humidity;BMP_temperature;BMP_pressure;BME280_temperature;BME280_humidity;BME280_pressure;Samples;Min_cycle;Max_cycle;Signal;HPM_P1;HPM_P2
2021/03/28 00:00:10;;;;;;;11.32;3.55;;;8.20;99.90;;;;;;5017201;28;20182;-76
2021/03/28 00:03:13;;;;;;;21.52;3.90;;;8.30;99.90;;;;;;5034071;28;20171;-76
2021/03/28 00:05:39;;;;;;;17.67;3.40;;;8.30;99.90;;;;;;4977392;28;20190;-75
2021/03/28 00:08:14;;;;;;;13.83;3.17;;;8.20;99.90;;;;;;5035054;28;20163;-75
2021/03/28 00:10:46;;;;;;;15.20;4.55;;;8.20;99.90;;;;;;5016788;28;20243;-75
2021/03/28 00:13:18;;;;;;;13.45;3.05;;;8.20;99.90;;;;;;5035083;28;20167;-77
2021/03/28 00:15:47;;;;;;;13.60;3.30;;;8.30;99.90;;;;;;5017362;28;20206;-74
2021/03/28 00:18:25;;;;;;;15.73;3.45;;;8.30;99.90;;;;;;5016954;28;20222;-75
2021/03/28 00:21:02;;;;;;;13.93;3.03;;;8.40;99.90;;;;;;5034392;28;20289;-76
2021/03/28 00:23:29;;;;;;;19.30;3.08;;;8.40;99.90;;;;;;5035075;28;20627;-76
2021/03/28 00:26:04;;;;;;;10.88;2.30;;;8.40;99.90;;;;;;5017126;28;20187;-75
2021/03/28 00:28:36;;;;;;;20.65;3.97;;;8.50;99.90;;;;;;5034917;28;20166;-75
2021/03/28 00:31:17;;;;;;;16.10;3.00;;;8.50;99.90;;;;;;5034611;28;20171;-75
2021/03/28 00:33:56;;;;;;;12.80;2.95;;;8.50;99.90;;;;;;5034726;28;20218;-75
2021/03/28 00:36:31;;;;;;;9.82;2.88;;;8.40;99.90;;;;;;5034481;28;20183;-75
2021/03/28 00:38:57;;;;;;;14.25;3.03;;;8.40;99.90;;;;;;5034376;28;20624;-75
2021/03/28 00:41:47;;;;;;;12.43;4.15;;;8.30;99.90;;;;;;5016492;28;20187;-75
2021/03/28 00:44:22;;;;;;;12.75;3.95;;;8.30;99.90;;;;;;5034693;28;20702;-75
2021/03/28 00:46:57;;;;;;;11.68;3.33;;;8.30;99.90;;;;;;5016797;28;20167;-75
2021/03/28 00:49:34;;;;;;;6.63;2.92;;;8.20;99.90;;;;;;5016755;28;20199;-76
2021/03/28 00:52:11;;;;;;;15.15;3.53;;;8.30;99.90;;;;;;5034983;28;20157;-76
2021/03/28 00:54:42;;;;;;;11.73;3.03;;;8.20;99.90;;;;;;5035236;28;20231;-75
2021/03/28 00:57:38;;;;;;;10.25;3.55;;;8.20;99.90;;;;;;5033290;28;20647;-75
2021/03/28 01:00:51;;;;;;;11.35;2.95;;;8.30;99.90;;;;;;5033595;28;20183;-75
2021/03/28 01:03:37;;;;;;;14.27;3.67;;;8.30;99.90;;;;;;5034266;28;20157;-75
2021/03/28 01:06:27;;;;;;;13.70;4.45;;;8.20;99.90;;;;;;5016330;28;20203;-76
2021/03/28 01:08:55;;;;;;;10.45;3.70;;;8.20;99.90;;;;;;5015862;28;20226;-75
2021/03/28 01:11:46;;;;;;;17.33;4.53;;;8.20;99.90;;;;;;5016360;28;20203;-75
2021/03/28 01:14:59;;;;;;;14.15;4.57;;;8.10;99.90;;;;;;5033885;28;20149;-77
2021/03/28 01:17:55;;;;;;;12.07;4.55;;;8.10;99.90;;;;;;5025682;28;20672;-76
2021/03/28 01:20:35;;;;;;;11.18;3.85;;;8.20;99.90;;;;;;5016349;28;20204;-75
2021/03/28 01:23:17;;;;;;;12.50;4.65;;;8.20;99.90;;;;;;5016112;28;20622;-76
2021/03/28 01:26:12;;;;;;;12.60;4.18;;;8.30;99.90;;;;;;5033153;28;20160;-75
2021/03/28 01:28:55;;;;;;;16.65;4.00;;;8.40;99.90;;;;;;5016032;28;20167;-76
2021/03/28 01:31:34;;;;;;;14.80;3.80;;;8.40;99.90;;;;;;5015769;28;20168;-75
2021/03/28 01:34:07;;;;;;;17.27;3.45;;;8.40;99.90;;;;;;5014939;28;20165;-75
2021/03/28 01:36:55;;;;;;;13.02;3.28;;;8.40;99.90;;;;;;5033999;28;20262;-75
2021/03/28 01:39:26;;;;;;;13.55;3.15;;;8.50;99.90;;;;;;5025195;28;20219;-76
2021/03/28 01:41:59;;;;;;;13.98;3.67;;;8.40;99.90;;;;;;5015981;28;20160;-75
2021/03/28 01:44:49;;;;;;;7.95;3.28;;;8.50;99.90;;;;;;5033790;28;20243;-75
2021/03/28 01:47:43;;;;;;;17.00;2.67;;;8.60;99.90;;;;;;5015405;28;20168;-75
2021/03/28 01:50:35;;;;;;;10.88;3.13;;;8.70;99.90;;;;;;5033249;28;20254;-75
2021/03/28 01:53:16;;;;;;;13.50;3.40;;;8.70;99.90;;;;;;5033151;28;20580;-75
2021/03/28 01:55:58;;;;;;;11.60;3.00;;;8.80;99.90;;;;;;5033372;28;20161;-75
2021/03/28 01:58:24;;;;;;;10.27;3.42;;;8.90;99.90;;;;;;5036485;28;20211;-75
2021/03/28 02:01:16;;;;;;;8.63;2.65;;;9.10;99.90;;;;;;5043731;28;20238;-75
2021/03/28 02:04:07;;;;;;;10.55;2.63;;;9.10;99.90;;;;;;5042155;28;20144;-75
2021/03/28 02:06:33;;;;;;;15.32;3.30;;;9.10;99.90;;;;;;5018770;28;20246;-76
2021/03/28 02:09:27;;;;;;;7.45;2.75;;;9.20;99.90;;;;;;5033319;28;20572;-75
2021/03/28 02:12:01;;;;;;;8.10;2.88;;;9.10;99.90;;;;;;5015668;28;20222;-75
2021/03/28 02:14:42;;;;;;;19.27;3.17;;;9.10;99.90;;;;;;5015963;28;20186;-75
2021/03/28 02:17:49;;;;;;;10.05;2.60;;;9.10;99.90;;;;;;5015333;28;20640;-76
2021/03/28 02:20:31;;;;;;;14.35;3.33;;;9.20;99.90;;;;;;5004373;28;20187;-76
2021/03/28 02:23:18;;;;;;;13.35;4.38;;;9.20;99.90;;;;;;5030794;28;20164;-75
2021/03/28 02:26:20;;;;;;;6.18;2.38;;;9.20;99.90;;;;;;5033071;28;20165;-75
2021/03/28 02:29:21;;;;;;;11.27;3.05;;;9.20;99.90;;;;;;5004678;28;20225;-76
2021/03/28 02:32:14;;;;;;;18.73;2.88;;;9.20;99.90;;;;;;5033443;28;20190;-76
2021/03/28 02:34:59;;;;;;;13.20;2.97;;;9.20;99.90;;;;;;5033311;28;20169;-76
2021/03/28 02:37:46;;;;;;;9.55;2.13;;;9.20;99.90;;;;;;5032757;28;20168;-75
2021/03/28 02:40:15;;;;;;;8.27;2.47;;;9.20;99.90;;;;;;5032999;28;20180;-75
2021/03/28 02:43:26;;;;;;;11.55;3.42;;;9.20;99.90;;;;;;5015350;28;20576;-76
2021/03/28 02:46:35;;;;;;;19.42;2.85;;;9.30;99.90;;;;;;5032147;28;20575;-76
2021/03/28 02:49:44;;;;;;;14.63;2.88;;;9.30;99.90;;;;;;5002217;28;20204;-75
2021/03/28 02:52:27;;;;;;;4.28;2.53;;;9.40;99.90;;;;;;5033104;28;20160;-75
2021/03/28 02:55:02;;;;;;;8.32;2.55;;;9.30;99.90;;;;;;5033230;28;20163;-75
2021/03/28 02:57:48;;;;;;;7.90;2.70;;;9.40;99.90;;;;;;5032645;28;20560;-76
2021/03/28 03:00:18;;;;;;;15.77;3.22;;;9.30;99.90;;;;;;5032932;28;20183;-75
2021/03/28 03:03:09;;;;;;;11.07;3.35;;;9.30;99.90;;;;;;5034728;28;20179;-75
2021/03/28 03:05:40;;;;;;;14.50;3.63;;;9.40;99.90;;;;;;5036346;28;20175;-76
2021/03/28 03:08:31;;;;;;;11.07;3.75;;;9.40;99.90;;;;;;5036590;28;20164;-76
2021/03/28 03:11:18;;;;;;;12.73;4.22;;;9.40;99.90;;;;;;5018046;28;20308;-75
2021/03/28 03:14:21;;;;;;;14.77;5.05;;;9.40;99.90;;;;;;5036029;28;20349;-76
2021/03/28 03:16:58;;;;;;;11.68;5.18;;;9.50;99.90;;;;;;5036396;28;20168;-76
2021/03/28 03:19:49;;;;;;;15.73;5.55;;;9.50;99.90;;;;;;5017956;28;20179;-75
2021/03/28 03:22:52;;;;;;;16.13;7.13;;;9.40;99.90;;;;;;5035983;28;20160;-75
2021/03/28 03:25:49;;;;;;;17.10;6.72;;;9.40;99.90;;;;;;5017803;28;20222;-76
2021/03/28 03:28:51;;;;;;;18.58;6.90;;;9.40;99.90;;;;;;5036124;28;20164;-75
2021/03/28 03:31:17;;;;;;;15.90;6.80;;;9.40;99.90;;;;;;5035706;28;20199;-76
2021/03/28 03:34:07;;;;;;;19.52;6.57;;;9.40;99.90;;;;;;5035651;28;20617;-76
2021/03/28 03:36:53;;;;;;;19.67;6.38;;;9.50;99.90;;;;;;5016237;28;20165;-75
2021/03/28 03:40:07;;;;;;;17.45;5.88;;;9.50;99.90;;;;;;5015899;28;20181;-76
2021/03/28 03:42:35;;;;;;;15.00;6.25;;;9.50;99.90;;;;;;5015955;28;20244;-75
2021/03/28 03:45:16;;;;;;;16.40;5.32;;;9.50;99.90;;;;;;5035183;28;20211;-75
2021/03/28 03:47:54;;;;;;;13.93;5.07;;;9.40;99.90;;;;;;5035088;28;20246;-75
2021/03/28 03:50:57;;;;;;;11.13;4.43;;;9.40;99.90;;;;;;5035413;28;20681;-76
2021/03/28 03:53:40;;;;;;;11.88;4.85;;;9.40;99.90;;;;;;5035609;28;20164;-75
2021/03/28 03:56:47;;;;;;;14.65;4.35;;;9.40;99.90;;;;;;5017129;28;20267;-75
2021/03/28 03:59:58;;;;;;;10.35;4.13;;;9.50;99.90;;;;;;4997264;28;20586;-75
2021/03/28 04:02:24;;;;;;;10.63;4.30;;;9.40;99.90;;;;;;5012168;28;20188;-75
2021/03/28 04:05:33;;;;;;;12.65;4.03;;;9.40;99.90;;;;;;5035145;28;20648;-75
2021/03/28 04:08:21;;;;;;;10.10;3.92;;;9.40;99.90;;;;;;5035413;28;20205;-75
2021/03/28 04:11:13;;;;;;;10.85;4.07;;;9.40;99.90;;;;;;5016886;28;20215;-75
2021/03/28 04:14:13;;;;;;;12.15;4.97;;;9.40;99.90;;;;;;5016520;28;20176;-75
2021/03/28 04:17:06;;;;;;;15.50;5.43;;;9.40;99.90;;;;;;5033943;28;20226;-75
2021/03/28 04:19:38;;;;;;;15.82;5.32;;;9.50;99.90;;;;;;5034869;28;20187;-76
2021/03/28 04:22:30;;;;;;;13.82;5.50;;;9.50;99.90;;;;;;5035075;28;20720;-75
2021/03/28 04:25:29;;;;;;;11.82;5.20;;;9.40;99.90;;;;;;5016928;28;20177;-76
2021/03/28 04:28:25;;;;;;;13.07;4.65;;;9.50;99.90;;;;;;5034975;28;20156;-76
2021/03/28 04:30:57;;;;;;;12.40;5.55;;;9.40;99.90;;;;;;5028596;28;20583;-75
2021/03/28 04:33:40;;;;;;;19.25;5.85;;;9.40;99.90;;;;;;5017098;28;20625;-75
2021/03/28 04:36:28;;;;;;;14.30;5.20;;;9.40;99.90;;;;;;5034568;28;20164;-75
2021/03/28 04:39:01;;;;;;;19.50;5.45;;;9.40;99.90;;;;;;5034228;28;20187;-75
2021/03/28 04:41:48;;;;;;;12.60;5.10;;;9.30;99.90;;;;;;5034729;28;20145;-75
2021/03/28 04:44:25;;;;;;;12.38;4.50;;;9.30;99.90;;;;;;5034297;28;20222;-75
2021/03/28 04:46:56;;;;;;;12.88;4.55;;;9.30;99.90;;;;;;5034158;28;20259;-75
2021/03/28 04:49:31;;;;;;;11.90;4.25;;;9.20;99.90;;;;;;5016429;28;20200;-75
2021/03/28 04:52:13;;;;;;;10.35;3.60;;;9.10;99.90;;;;;;5034779;28;20152;-75
2021/03/28 04:54:52;;;;;;;7.53;3.90;;;9.10;99.90;;;;;;5016596;28;20558;-75
2021/03/28 04:57:36;;;;;;;10.57;4.13;;;9.10;99.90;;;;;;5016249;28;20188;-75
2021/03/28 05:00:26;;;;;;;19.20;4.07;;;9.10;99.90;;;;;;5016720;28;20179;-75
2021/03/28 05:03:13;;;;;;;16.75;4.13;;;9.10;99.90;;;;;;5034328;28;20163;-75
2021/03/28 05:05:54;;;;;;;15.05;4.32;;;9.20;99.90;;;;;;5034239;28;20161;-75
2021/03/28 05:08:41;;;;;;;11.45;3.63;;;9.20;99.90;;;;;;5016650;28;20570;-75
2021/03/28 05:11:31;;;;;;;12.77;4.40;;;9.20;99.90;;;;;;5034322;28;20173;-75
2021/03/28 05:14:32;;;;;;;10.93;3.83;;;9.20;99.90;;;;;;5016347;28;20615;-76
2021/03/28 05:17:13;;;;;;;10.13;4.07;;;9.20;99.90;;;;;;4979332;28;20544;-76
2021/03/28 05:19:58;;;;;;;10.23;4.07;;;9.20;99.90;;;;;;5026840;28;20171;-75
2021/03/28 05:22:41;;;;;;;10.77;3.10;;;9.20;99.90;;;;;;5033976;28;20187;-75
2021/03/28 05:25:31;;;;;;;12.48;3.55;;;9.20;99.90;;;;;;5033224;28;20256;-75
2021/03/28 05:27:56;;;;;;;6.47;3.65;;;9.10;99.90;;;;;;5033926;28;20156;-77
2021/03/28 05:30:56;;;;;;;12.02;3.38;;;9.10;99.90;;;;;;5033774;28;20202;-76
2021/03/28 05:33:42;;;;;;;13.77;3.47;;;9.00;99.90;;;;;;5015974;28;20164;-75
2021/03/28 05:36:29;;;;;;;18.35;3.65;;;9.00;99.90;;;;;;5015936;28;20182;-75
2021/03/28 05:39:19;;;;;;;11.93;3.92;;;8.90;99.90;;;;;;5016081;28;20517;-75
2021/03/28 05:42:06;;;;;;;8.45;3.40;;;8.80;99.90;;;;;;5016370;28;20551;-75
2021/03/28 05:45:09;;;;;;;10.18;3.75;;;8.70;99.90;;;;;;5015750;28;20302;-75
2021/03/28 05:47:59;;;;;;;9.88;3.50;;;8.80;99.90;;;;;;5033866;28;20214;-75
2021/03/28 05:50:47;;;;;;;9.48;3.22;;;8.70;99.90;;;;;;5015336;28;20227;-75
2021/03/28 05:53:51;;;;;;;13.35;4.05;;;8.70;99.90;;;;;;5015302;28;20164;-75
2021/03/28 05:57:02;;;;;;;10.93;3.33;;;8.80;99.90;;;;;;5032887;28;20523;-75
2021/03/28 05:59:30;;;;;;;20.52;3.80;;;8.80;99.90;;;;;;5013344;28;20572;-75
2021/03/28 06:02:18;;;;;;;13.07;3.70;;;8.80;99.90;;;;;;5033526;28;20179;-75
2021/03/28 06:05:01;;;;;;;12.88;3.67;;;8.80;99.90;;;;;;5033165;28;20198;-75
2021/03/28 06:07:27;;;;;;;11.32;3.22;;;9.00;99.90;;;;;;5015837;28;20225;-75
2021/03/28 06:10:28;;;;;;;15.30;4.25;;;9.10;99.90;;;;;;5015565;28;20208;-75
2021/03/28 06:13:31;;;;;;;17.45;4.28;;;9.20;99.90;;;;;;5015342;28;20193;-75
2021/03/28 06:16:24;;;;;;;10.98;3.78;;;9.40;99.90;;;;;;5015085;28;20215;-75
2021/03/28 06:19:37;;;;;;;14.98;3.83;;;9.70;99.90;;;;;;5033153;28;20167;-76
2021/03/28 06:22:24;;;;;;;13.10;3.08;;;10.00;99.90;;;;;;5033025;28;20167;-76
2021/03/28 06:25:09;;;;;;;11.23;4.47;;;10.20;99.90;;;;;;5032816;28;20217;-76
2021/03/28 06:27:40;;;;;;;13.98;3.78;;;10.30;99.90;;;;;;5015306;28;20175;-75
2021/03/28 06:30:39;;;;;;;12.02;4.40;;;10.50;99.90;;;;;;5032833;28;20691;-75
2021/03/28 06:33:35;;;;;;;9.18;4.13;;;10.50;99.90;;;;;;5032639;28;20172;-75
2021/03/28 06:36:16;;;;;;;18.58;3.58;;;10.50;99.90;;;;;;5015704;28;20248;-76
2021/03/28 06:39:12;;;;;;;17.00;4.07;;;10.60;99.90;;;;;;5036717;28;20235;-76
2021/03/28 06:42:08;;;;;;;18.90;4.43;;;10.60;99.90;;;;;;5036852;28;20247;-76
2021/03/28 06:44:51;;;;;;;13.00;4.32;;;10.60;99.90;;;;;;5036663;28;20168;-75
2021/03/28 06:47:42;;;;;;;17.25;4.55;;;10.60;99.90;;;;;;5019178;28;20172;-75
2021/03/28 06:50:26;;;;;;;13.05;4.10;;;10.70;99.90;;;;;;5036380;28;20196;-75
2021/03/28 06:53:19;;;;;;;14.98;4.07;;;10.60;99.90;;;;;;5036600;28;20172;-75
2021/03/28 06:55:46;;;;;;;10.60;3.75;;;10.60;99.90;;;;;;5036789;28;20497;-75
2021/03/28 06:58:37;;;;;;;16.67;4.28;;;10.70;99.90;;;;;;5036076;28;20640;-75
2021/03/28 07:01:41;;;;;;;20.88;4.70;;;10.70;99.90;;;;;;5018573;28;20168;-76
2021/03/28 07:04:48;;;;;;;12.23;3.70;;;10.90;99.90;;;;;;5018694;28;20179;-75
2021/03/28 07:07:41;;;;;;;22.38;3.88;;;11.20;99.90;;;;;;4990828;28;20224;-76
2021/03/28 07:10:25;;;;;;;10.23;3.40;;;11.60;99.90;;;;;;5036550;28;20592;-75
2021/03/28 07:13:28;;;;;;;13.23;4.05;;;11.80;99.90;;;;;;5036090;28;20211;-77
2021/03/28 07:16:15;;;;;;;14.45;4.85;;;12.10;99.90;;;;;;5036609;28;20241;-76
2021/03/28 07:19:20;;;;;;;15.57;3.47;;;12.50;99.90;;;;;;5018146;28;20164;-76
2021/03/28 07:22:19;;;;;;;20.05;4.07;;;12.80;99.90;;;;;;5018289;28;20195;-76
2021/03/28 07:25:13;;;;;;;14.05;3.28;;;13.80;99.90;;;;;;5018342;28;20176;-76
2021/03/28 07:28:16;;;;;;;12.40;3.45;;;15.00;99.90;;;;;;5036396;28;20156;-76
2021/03/28 07:31:03;;;;;;;11.20;3.60;;;15.50;99.90;;;;;;5018258;28;20237;-76
2021/03/28 07:34:07;;;;;;;10.98;3.30;;;16.70;99.90;;;;;;5035845;28;20688;-75
2021/03/28 07:37:09;;;;;;;9.27;3.33;;;18.00;99.90;;;;;;5035967;28;20171;-76
2021/03/28 07:40:05;;;;;;;14.90;4.03;;;19.60;99.90;;;;;;5036245;28;20205;-75
2021/03/28 07:43:01;;;;;;;9.35;2.58;;;20.20;99.90;;;;;;5017868;28;20168;-76
2021/03/28 07:45:48;;;;;;;16.10;3.78;;;20.40;99.90;;;;;;5018121;28;20168;-77
2021/03/28 07:48:32;;;;;;;12.57;3.15;;;20.40;99.90;;;;;;5033275;28;20212;-78
2021/03/28 07:51:32;;;;;;;11.15;2.75;;;21.00;99.90;;;;;;5017474;28;20230;-75
2021/03/28 07:54:35;;;;;;;11.15;2.72;;;21.10;99.90;;;;;;5021562;28;20649;-76
2021/03/28 07:57:04;;;;;;;15.27;3.00;;;22.10;99.90;;;;;;5046020;28;20214;-77
2021/03/28 07:59:40;;;;;;;8.40;2.40;;;22.00;99.90;;;;;;5046924;28;20640;-76
2021/03/28 08:02:44;;;;;;;11.43;3.42;;;21.80;99.90;;;;;;5022255;28;20176;-77
2021/03/28 08:05:34;;;;;;;11.27;2.67;;;21.90;99.90;;;;;;5018408;28;20172;-76
2021/03/28 08:08:25;;;;;;;10.68;2.78;;;21.50;99.90;;;;;;5015459;28;20215;-76
2021/03/28 08:11:05;;;;;;;5.57;2.00;;;22.00;99.90;;;;;;5029261;28;20212;-76
2021/03/28 08:13:47;;;;;;;7.78;2.75;;;22.60;99.90;;;;;;5035648;28;20159;-76
2021/03/28 08:16:39;;;;;;;9.40;2.72;;;21.40;99.60;;;;;;5035991;28;20242;-75
2021/03/28 08:19:32;;;;;;;8.93;2.33;;;20.20;99.90;;;;;;5035254;28;20187;-75
2021/03/28 08:22:06;;;;;;;14.30;2.50;;;19.80;99.90;;;;;;5017718;28;20164;-76
2021/03/28 08:24:59;;;;;;;10.25;2.40;;;19.90;99.90;;;;;;5015754;28;20266;-78
2021/03/28 08:27:49;;;;;;;13.02;2.90;;;20.40;99.90;;;;;;5032775;28;20168;-76
2021/03/28 08:30:31;;;;;;;8.40;2.95;;;20.20;99.90;;;;;;5038482;28;20188;-75
2021/03/28 08:33:19;;;;;;;13.95;2.25;;;20.00;99.90;;;;;;5020253;28;20527;-75
2021/03/28 08:36:09;;;;;;;8.75;2.47;;;18.90;99.90;;;;;;5038373;28;20161;-75
2021/03/28 08:39:01;;;;;;;11.40;2.38;;;18.30;99.90;;;;;;5037504;28;20164;-74
2021/03/28 08:41:42;;;;;;;10.00;3.33;;;18.70;99.90;;;;;;5013911;28;20218;-76
2021/03/28 08:44:35;;;;;;;10.77;2.53;;;18.70;99.90;;;;;;5034943;28;20254;-76
2021/03/28 08:47:38;;;;;;;8.00;2.53;;;19.80;99.90;;;;;;5012857;28;20184;-80
2021/03/28 08:50:24;;;;;;;6.82;2.50;;;21.00;99.90;;;;;;5034830;28;20345;-76
2021/03/28 08:53:18;;;;;;;6.38;2.28;;;20.60;99.90;;;;;;5016451;28;20179;-75
2021/03/28 08:56:24;;;;;;;10.93;2.35;;;21.70;99.90;;;;;;5016433;28;20613;-78
2021/03/28 08:59:09;;;;;;;8.50;2.03;;;22.60;97.80;;;;;;4953594;28;20676;-76
2021/03/28 09:02:07;;;;;;;7.53;2.45;;;22.90;97.00;;;;;;5014643;28;20190;-76
2021/03/28 09:04:50;;;;;;;12.98;2.90;;;23.10;97.70;;;;;;5016760;28;20172;-76
2021/03/28 09:07:35;;;;;;;9.50;2.15;;;24.50;96.70;;;;;;5032334;28;20164;-75
2021/03/28 09:10:24;;;;;;;9.23;2.20;;;25.00;94.10;;;;;;5016319;28;20207;-75
2021/03/28 09:13:18;;;;;;;14.20;2.33;;;23.90;93.80;;;;;;5016720;28;20173;-77
2021/03/28 09:16:19;;;;;;;10.20;2.67;;;22.90;95.40;;;;;;5011642;28;20172;-75
2021/03/28 09:19:03;;;;;;;9.60;1.92;;;23.30;94.80;;;;;;5028637;28;20629;-74
2021/03/28 09:21:56;;;;;;;8.35;2.10;;;22.60;94.40;;;;;;5034091;28;20156;-74
2021/03/28 09:24:34;;;;;;;13.63;2.25;;;22.30;94.60;;;;;;5029570;28;20184;-74
2021/03/28 09:27:34;;;;;;;6.63;2.08;;;22.90;94.20;;;;;;5033794;28;20623;-74
2021/03/28 09:30:27;;;;;;;10.70;2.28;;;23.10;94.60;;;;;;5033129;28;20192;-75
2021/03/28 09:33:05;;;;;;;7.25;1.95;;;23.20;94.40;;;;;;5015809;28;20247;-75
2021/03/28 09:35:52;;;;;;;4.60;1.83;;;23.20;94.20;;;;;;5034740;28;20168;-75
2021/03/28 09:38:51;;;;;;;4.38;1.58;;;23.60;93.70;;;;;;5033944;28;20213;-75
2021/03/28 09:41:52;;;;;;;6.68;2.03;;;23.40;92.70;;;;;;5033875;28;20229;-75
2021/03/28 09:44:35;;;;;;;5.88;1.80;;;23.80;92.50;;;;;;5033954;28;20161;-76
2021/03/28 09:47:17;;;;;;;6.18;2.13;;;22.10;93.90;;;;;;5033680;28;20619;-74
2021/03/28 09:50:01;;;;;;;4.03;2.00;;;21.00;95.00;;;;;;5033921;28;20192;-75
2021/03/28 09:52:40;;;;;;;8.75;2.10;;;21.20;95.10;;;;;;5013771;28;20346;-75
2021/03/28 09:55:44;;;;;;;10.25;2.25;;;20.80;95.40;;;;;;4996023;28;20172;-76
2021/03/28 09:58:36;;;;;;;7.00;2.10;;;20.70;95.90;;;;;;4934022;28;20192;-75
2021/03/28 10:01:17;;;;;;;9.98;2.00;;;20.00;97.20;;;;;;5023210;28;20198;-76
2021/03/28 10:03:54;;;;;;;7.07;2.08;;;19.30;97.90;;;;;;5015034;28;20644;-76
2021/03/28 10:06:23;;;;;;;9.93;2.08;;;19.50;98.30;;;;;;5015765;28;20180;-75
2021/03/28 10:08:58;;;;;;;7.10;1.85;;;18.80;98.30;;;;;;5033586;28;20191;-74
2021/03/28 10:11:32;;;;;;;6.43;2.17;;;18.40;98.90;;;;;;5033527;28;20172;-75
2021/03/28 10:13:58;;;;;;;9.23;1.92;;;18.80;99.10;;;;;;5037243;28;20171;-76
2021/03/28 10:16:53;;;;;;;6.00;1.80;;;18.80;98.40;;;;;;5037306;28;20639;-74
2021/03/28 10:19:40;;;;;;;9.43;2.40;;;20.50;98.30;;;;;;5037691;28;20196;-74
2021/03/28 10:22:10;;;;;;;9.05;1.73;;;21.40;95.30;;;;;;5018991;28;20246;-75
2021/03/28 10:25:13;;;;;;;5.13;1.83;;;21.40;95.40;;;;;;5036799;28;20168;-74
2021/03/28 10:28:05;;;;;;;7.65;2.05;;;22.20;94.80;;;;;;5019690;28;20172;-75
2021/03/28 10:30:45;;;;;;;6.32;1.95;;;22.80;94.20;;;;;;5036746;28;20208;-77
2021/03/28 10:33:51;;;;;;;7.78;2.30;;;22.90;94.00;;;;;;5034352;28;20172;-75
2021/03/28 10:36:41;;;;;;;7.15;2.17;;;23.60;94.40;;;;;;5036857;28;20180;-74
2021/03/28 10:39:38;;;;;;;8.00;2.25;;;23.40;93.60;;;;;;5037360;28;20564;-75
2021/03/28 10:42:21;;;;;;;10.20;2.55;;;22.40;95.00;;;;;;5019056;28;20633;-75
2021/03/28 10:45:02;;;;;;;9.77;2.33;;;23.20;94.50;;;;;;5019238;28;20527;-75
2021/03/28 10:47:46;;;;;;;11.73;1.90;;;23.10;94.00;;;;;;5036625;28;20492;-74
2021/03/28 10:50:39;;;;;;;11.50;2.63;;;22.10;94.50;;;;;;5018962;28;20200;-75
2021/03/28 10:53:41;;;;;;;7.38;2.10;;;21.80;95.00;;;;;;5036339;28;20174;-74
2021/03/28 10:56:31;;;;;;;9.65;2.50;;;22.60;95.00;;;;;;5018872;28;20175;-76
2021/03/28 10:59:34;;;;;;;13.02;2.05;;;22.90;94.50;;;;;;5036895;28;20188;-76
2021/03/28 11:02:21;;;;;;;8.43;2.00;;;23.00;94.20;;;;;;5029672;28;20179;-75
2021/03/28 11:05:08;;;;;;;10.10;2.30;;;20.80;95.30;;;;;;5036527;28;20168;-74
2021/03/28 11:07:51;;;;;;;8.15;2.10;;;19.10;97.50;;;;;;5035734;28;20184;-75
2021/03/28 11:10:49;;;;;;;6.25;1.98;;;18.40;98.60;;;;;;5018338;28;20212;-75
2021/03/28 11:13:36;;;;;;;10.32;2.13;;;17.90;99.40;;;;;;5035912;28;20228;-75
2021/03/28 11:16:26;;;;;;;8.55;2.08;;;17.80;99.90;;;;;;5036210;28;20168;-75
2021/03/28 11:19:29;;;;;;;6.47;2.10;;;19.00;99.90;;;;;;5036309;28;20156;-75
2021/03/28 11:22:35;;;;;;;7.55;2.38;;;19.50;98.90;;;;;;5017784;28;20524;-75
2021/03/28 11:25:25;;;;;;;6.10;1.90;;;20.30;98.80;;;;;;5034707;28;20164;-75
2021/03/28 11:27:54;;;;;;;9.30;1.90;;;20.00;97.80;;;;;;5016430;28;20170;-75
2021/03/28 11:30:42;;;;;;;10.45;2.65;;;19.60;98.90;;;;;;5035355;28;20631;-75
2021/03/28 11:33:29;;;;;;;8.45;1.50;;;21.30;96.90;;;;;;5035413;28;20267;-74
2021/03/28 11:35:55;;;;;;;8.65;2.33;;;21.70;96.40;;;;;;5035604;28;20168;-74
2021/03/28 11:38:20;;;;;;;7.90;2.40;;;22.80;95.50;;;;;;5017597;28;20176;-76
2021/03/28 11:40:53;;;;;;;7.20;2.25;;;22.50;95.80;;;;;;5035391;28;20637;-74
2021/03/28 11:43:41;;;;;;;9.75;1.92;;;21.10;96.30;;;;;;5035370;28;20172;-75
2021/03/28 11:46:33;;;;;;;7.57;2.83;;;20.30;97.80;;;;;;5035898;28;20183;-75
2021/03/28 11:48:58;;;;;;;10.07;2.47;;;19.70;98.10;;;;;;5035613;28;20173;-75
2021/03/28 11:51:37;;;;;;;13.52;2.63;;;19.30;99.30;;;;;;5035498;28;20225;-74
2021/03/28 11:54:12;;;;;;;11.27;3.22;;;18.70;99.20;;;;;;5032504;28;20187;-74
2021/03/28 11:57:15;;;;;;;12.02;2.35;;;18.10;99.90;;;;;;5015550;28;20175;-74
2021/03/28 11:59:44;;;;;;;7.13;2.40;;;17.50;99.90;;;;;;5021365;28;20192;-74
2021/03/28 12:02:13;;;;;;;9.02;2.25;;;17.20;99.90;;;;;;5017220;28;20211;-76
2021/03/28 12:04:47;;;;;;;7.63;1.92;;;16.80;99.90;;;;;;5016895;28;20212;-74
2021/03/28 12:07:21;;;;;;;9.93;2.55;;;16.60;99.90;;;;;;5035259;28;20179;-75
2021/03/28 12:10:10;;;;;;;7.25;2.10;;;16.50;99.90;;;;;;5017289;28;20214;-76
2021/03/28 12:12:39;;;;;;;9.77;2.22;;;16.40;99.90;;;;;;5009324;28;20180;-75
2021/03/28 12:15:42;;;;;;;13.10;2.78;;;16.20;99.90;;;;;;5035277;28;20169;-75
2021/03/28 12:18:28;;;;;;;11.65;2.50;;;16.20;99.90;;;;;;5017400;28;20168;-75
2021/03/28 12:21:03;;;;;;;10.48;2.95;;;16.40;99.90;;;;;;5034382;28;20172;-75
2021/03/28 12:23:40;;;;;;;10.43;2.45;;;16.60;99.90;;;;;;5017008;28;20175;-75
2021/03/28 12:26:23;;;;;;;14.93;3.35;;;16.50;99.90;;;;;;5017361;28;20171;-75
2021/03/28 12:29:03;;;;;;;13.00;2.60;;;16.40;99.90;;;;;;5034703;28;20306;-76
2021/03/28 12:31:42;;;;;;;10.75;2.10;;;16.30;99.90;;;;;;5017280;28;20186;-76
2021/03/28 12:34:26;;;;;;;9.35;2.40;;;16.30;99.90;;;;;;5017114;28;20259;-75
2021/03/28 12:37:06;;;;;;;13.25;2.88;;;16.40;99.90;;;;;;5034878;28;20218;-75
2021/03/28 12:39:34;;;;;;;9.00;2.80;;;16.40;99.90;;;;;;5016464;28;20266;-75
2021/03/28 12:42:20;;;;;;;6.53;1.90;;;16.90;99.90;;;;;;5017000;28;20179;-75
2021/03/28 12:44:52;;;;;;;16.17;3.03;;;17.50;99.90;;;;;;5005907;28;20184;-77
2021/03/28 12:47:28;;;;;;;6.95;2.72;;;17.60;99.90;;;;;;5034638;28;20255;-75
2021/03/28 12:50:24;;;;;;;8.73;2.25;;;17.50;99.90;;;;;;5034347;28;20666;-75
2021/03/28 12:53:01;;;;;;;8.63;3.15;;;17.60;99.90;;;;;;5024158;28;20565;-75
2021/03/28 12:55:31;;;;;;;8.45;2.42;;;17.70;99.90;;;;;;5016792;28;20172;-75
2021/03/28 12:58:08;;;;;;;8.82;2.25;;;17.70;99.90;;;;;;5033957;28;20180;-75
2021/03/28 13:00:40;;;;;;;8.07;2.40;;;18.10;99.90;;;;;;5034628;28;20172;-75
2021/03/28 13:03:19;;;;;;;7.70;2.38;;;18.00;99.90;;;;;;5034263;28;20187;-76
2021/03/28 13:06:06;;;;;;;8.13;2.60;;;17.80;99.90;;;;;;5034618;28;20166;-75
2021/03/28 13:08:42;;;;;;;8.55;1.92;;;17.60;99.90;;;;;;5015770;28;20172;-75
2021/03/28 13:11:09;;;;;;;11.57;2.40;;;17.40;99.90;;;;;;5033804;28;20191;-75
2021/03/28 13:13:47;;;;;;;9.23;2.17;;;17.30;99.90;;;;;;5034055;28;20238;-75
2021/03/28 13:16:28;;;;;;;5.93;2.13;;;17.30;99.90;;;;;;5034251;28;20168;-75
2021/03/28 13:18:56;;;;;;;8.63;2.50;;;17.10;99.90;;;;;;5033796;28;20176;-75
2021/03/28 13:21:30;;;;;;;11.23;1.83;;;17.30;99.90;;;;;;5016233;28;20164;-75
2021/03/28 13:24:07;;;;;;;9.57;3.05;;;17.40;99.90;;;;;;5016292;28;20212;-76
2021/03/28 13:26:56;;;;;;;7.53;1.88;;;17.30;99.90;;;;;;5016367;28;20172;-75
2021/03/28 13:29:36;;;;;;;13.30;2.60;;;17.10;99.90;;;;;;5001749;28;20230;-75
2021/03/28 13:32:03;;;;;;;5.72;2.17;;;17.00;99.90;;;;;;5033609;28;20170;-75
2021/03/28 13:34:28;;;;;;;8.05;2.10;;;16.80;99.90;;;;;;5033769;28;20629;-75
2021/03/28 13:37:22;;;;;;;11.00;2.28;;;16.60;99.90;;;;;;5033529;28;20171;-75
2021/03/28 13:40:20;;;;;;;7.80;2.15;;;16.60;99.90;;;;;;5034022;28;20179;-76
2021/03/28 13:42:58;;;;;;;8.85;2.55;;;16.60;99.90;;;;;;5006289;28;20229;-76
2021/03/28 13:45:32;;;;;;;8.50;2.30;;;16.60;99.90;;;;;;5034772;28;20505;-75
2021/03/28 13:48:18;;;;;;;8.52;2.60;;;16.60;99.90;;;;;;5015441;28;20187;-75
2021/03/28 13:50:53;;;;;;;10.05;2.95;;;16.80;99.90;;;;;;5034353;28;20437;-76
2021/03/28 13:53:57;;;;;;;9.82;2.35;;;16.70;99.90;;;;;;5034516;28;20616;-75
2021/03/28 13:56:41;;;;;;;7.15;1.92;;;16.60;99.90;;;;;;5016749;28;20175;-75
2021/03/28 13:59:23;;;;;;;8.43;2.38;;;16.70;99.90;;;;;;5035120;28;20659;-75
2021/03/28 14:01:55;;;;;;;9.55;2.25;;;16.50;99.90;;;;;;5034332;28;20250;-76
2021/03/28 14:04:33;;;;;;;11.40;2.53;;;16.50;99.90;;;;;;5017511;28;20260;-75
2021/03/28 14:07:04;;;;;;;7.47;2.20;;;16.50;99.90;;;;;;5033722;28;20171;-76
2021/03/28 14:09:33;;;;;;;11.65;2.63;;;16.60;99.90;;;;;;5033692;28;20195;-76
2021/03/28 14:12:06;;;;;;;7.97;2.17;;;16.50;99.90;;;;;;5033626;28;20172;-75
2021/03/28 14:14:35;;;;;;;9.23;2.20;;;16.50;99.90;;;;;;5032978;28;20262;-76
2021/03/28 14:17:22;;;;;;;9.02;2.50;;;16.40;99.90;;;;;;5016298;28;20203;-76
2021/03/28 14:19:49;;;;;;;10.13;2.00;;;16.20;99.90;;;;;;5014006;28;20248;-75